»·PEaware :: UAL1636 KSFO-KPHX

UAL1636 :: KSFO-KPHX

FLIGHT INFORMATION

Flight Status: Arrived
Operator:
United Airlines
More flights by this operator :: More flights under this callsign
Pilot: Jac C. (16067)
Aircraft: AIRBUS A320
(A320)
More flights by this aircraft type
Origin: KSFO San Francisco Intl
United States
Destination: KPHX Phoenix Sky Harbor Intl
United States
More flights between these airports :: More routes between these airports
Route: SSTIK3 LOSHN BOILE BLH HYDRR1
File this flight plan on PilotEdge
Remarks: PBN / A1B1C1D1O1S1 DOF / 180708 REG / N320SB EET / KZLA0028 KZAB0112 OPR / UAL PER / C RMK / TCAS SIMBRIEF
Altitude:
(Current/Filed)
37,000ft
Speed:
(Current/Filed)
457kts
Departed: 08-Jul-18 10:28 AM
Arrived: 08-Jul-18 12:03 PM
Distance/Time
Traveled:
564nm/1:35
Distance/Time
To Go:
Arrived

Flight Plot

Page will automatically refresh every two minutes.


Map Options




Map Legend


Flown Route
Filed Route
Departure Airport
Arrival Airport
Navaid (VOR, NDB)
Fix

Horizontal Profiles

Position Reports

Time Latitude Longitude Heading Altitude Ground
Speed
08-Jul-18 10:05 37.619195 -122.383546 291 18ft 0kts
08-Jul-18 10:06 37.619195 -122.383546 291 18ft 0kts
08-Jul-18 10:07 37.619195 -122.383546 291 18ft 0kts
08-Jul-18 10:08 37.619195 -122.383546 291 18ft 0kts
08-Jul-18 10:09 37.619195 -122.383546 291 18ft 0kts
08-Jul-18 10:10 37.619195 -122.383546 291 18ft 0kts
08-Jul-18 10:11 37.619195 -122.383546 291 18ft 0kts
08-Jul-18 10:12 37.619195 -122.383546 291 18ft 0kts
08-Jul-18 10:13 37.619195 -122.383546 291 18ft 0kts
08-Jul-18 10:14 37.619195 -122.383546 291 18ft 0kts
08-Jul-18 10:15 37.619195 -122.383546 291 18ft 0kts
08-Jul-18 10:16 37.619195 -122.383546 291 18ft 0kts
08-Jul-18 10:17 37.618780 -122.383128 358 18ft 2kts
08-Jul-18 10:18 37.618495 -122.383225 29 18ft 0kts
08-Jul-18 10:19 37.618495 -122.383224 29 18ft 0kts
08-Jul-18 10:20 37.618495 -122.383224 29 18ft 0kts
08-Jul-18 10:21 37.618496 -122.383224 29 18ft 0kts
08-Jul-18 10:22 37.619055 -122.382835 28 18ft 5kts
08-Jul-18 10:22 37.619099 -122.382805 28 18ft 0kts
08-Jul-18 10:23 37.619641 -122.382213 82 18ft 7kts
08-Jul-18 10:24 37.617928 -122.379552 164 18ft 15kts
08-Jul-18 10:25 37.613574 -122.381662 208 18ft 17kts
08-Jul-18 10:26 37.609242 -122.384752 195 18ft 14kts
08-Jul-18 10:27 37.608393 -122.383662 118 18ft 4kts
08-Jul-18 10:28 37.616120 -122.377511 27 18ft 137kts
08-Jul-18 10:29 37.661142 -122.361734 358 2557ft 190kts
08-Jul-18 10:30 37.707194 -122.394862 274 4441ft 253kts
08-Jul-18 10:31 37.661342 -122.446659 191 7481ft 275kts
08-Jul-18 10:32 37.589543 -122.458116 190 10440ft 281kts
08-Jul-18 10:33 37.504416 -122.467787 171 12008ft 339kts
08-Jul-18 10:34 37.432784 -122.386733 132 14333ft 366kts
08-Jul-18 10:35 37.379212 -122.302848 133 16080ft 376kts
08-Jul-18 10:36 37.313125 -122.200384 133 17999ft 386kts
08-Jul-18 10:38 37.245583 -122.096119 133 19727ft 396kts
08-Jul-18 10:39 37.175667 -121.988545 133 21321ft 406kts
08-Jul-18 10:40 37.103948 -121.878562 132 22789ft 414kts
08-Jul-18 10:41 37.030841 -121.766810 132 24213ft 420kts
08-Jul-18 10:42 36.956318 -121.653290 131 25494ft 426kts
08-Jul-18 10:43 36.881048 -121.539028 131 26635ft 433kts
08-Jul-18 10:44 36.805021 -121.424011 131 27692ft 439kts
08-Jul-18 10:45 36.730583 -121.311779 132 28628ft 445kts
08-Jul-18 10:46 36.653031 -121.195251 132 29497ft 451kts
08-Jul-18 10:47 36.572606 -121.074843 132 30183ft 459kts
08-Jul-18 10:48 36.491212 -120.953387 131 31126ft 459kts
08-Jul-18 10:49 36.410378 -120.832258 131 32096ft 457kts
08-Jul-18 10:50 36.329557 -120.711518 131 33011ft 455kts
08-Jul-18 10:51 36.251411 -120.595198 131 33836ft 453kts
08-Jul-18 10:52 36.171277 -120.476334 131 34608ft 451kts
08-Jul-18 10:53 36.091209 -120.357988 131 35124ft 450kts
08-Jul-18 10:54 36.016691 -120.248212 132 35111ft 449kts
08-Jul-18 10:55 35.936587 -120.130622 132 35166ft 449kts
08-Jul-18 10:56 35.857292 -120.014594 132 35806ft 448kts
08-Jul-18 10:57 35.776284 -119.898819 133 36416ft 447kts
08-Jul-18 10:58 35.694922 -119.783371 133 36917ft 447kts
08-Jul-18 10:59 35.615986 -119.671690 133 37116ft 447kts
08-Jul-18 11:00 35.537372 -119.560821 133 37118ft 447kts
08-Jul-18 11:01 35.456532 -119.447188 133 37122ft 447kts
08-Jul-18 11:02 35.376648 -119.335272 134 37119ft 447kts
08-Jul-18 11:03 35.305508 -119.235909 134 37119ft 447kts
08-Jul-18 11:04 35.224458 -119.123058 134 37116ft 446kts
08-Jul-18 11:05 35.142574 -119.009422 134 37120ft 446kts
08-Jul-18 11:06 35.062353 -118.898457 133 37204ft 446kts
08-Jul-18 11:07 34.984012 -118.790436 132 37320ft 446kts
08-Jul-18 11:08 34.902174 -118.677946 131 37312ft 445kts
08-Jul-18 11:09 34.823938 -118.570762 131 37238ft 445kts
08-Jul-18 11:10 34.741639 -118.458364 131 37147ft 445kts
08-Jul-18 11:11 34.661360 -118.349074 132 37142ft 446kts
08-Jul-18 11:12 34.582206 -118.241654 132 37154ft 446kts
08-Jul-18 11:13 34.499745 -118.130095 132 37160ft 446kts
08-Jul-18 11:14 34.422531 -118.013608 115 37159ft 448kts
08-Jul-18 11:15 34.385301 -117.870059 106 37133ft 448kts
08-Jul-18 11:16 34.350826 -117.726066 106 37139ft 447kts
08-Jul-18 11:17 34.316117 -117.582075 106 37146ft 447kts
08-Jul-18 11:18 34.281282 -117.438387 106 37119ft 447kts
08-Jul-18 11:19 34.246514 -117.295770 107 37095ft 447kts
08-Jul-18 11:20 34.211342 -117.152296 107 37096ft 447kts
08-Jul-18 11:21 34.175956 -117.008754 107 37112ft 446kts
08-Jul-18 11:22 34.140677 -116.866428 107 37126ft 443kts
08-Jul-18 11:23 34.105431 -116.725028 107 37061ft 440kts
08-Jul-18 11:24 34.070035 -116.583829 107 37018ft 439kts
08-Jul-18 11:25 34.034720 -116.443680 107 37020ft 439kts
08-Jul-18 11:26 34.000193 -116.307364 108 37048ft 439kts
08-Jul-18 11:27 33.964406 -116.166810 108 37043ft 440kts
08-Jul-18 11:28 33.928496 -116.026510 108 37006ft 440kts
08-Jul-18 11:29 33.892947 -115.888348 108 36996ft 440kts
08-Jul-18 11:30 33.857307 -115.750533 108 36998ft 441kts
08-Jul-18 11:31 33.821144 -115.611402 108 36996ft 441kts
08-Jul-18 11:32 33.784795 -115.472301 108 36991ft 440kts
08-Jul-18 11:33 33.748512 -115.334159 108 36556ft 439kts
08-Jul-18 11:34 33.712251 -115.196801 108 35661ft 440kts
08-Jul-18 11:35 33.675434 -115.058039 108 34740ft 438kts
08-Jul-18 11:36 33.638332 -114.918900 107 33807ft 438kts
08-Jul-18 11:37 33.601022 -114.779624 106 32860ft 442kts
08-Jul-18 11:38 33.571978 -114.636850 102 31304ft 442kts
08-Jul-18 11:39 33.544496 -114.495873 102 29295ft 429kts
08-Jul-18 11:40 33.517602 -114.358788 102 27251ft 418kts
08-Jul-18 11:41 33.495327 -114.245895 102 25537ft 409kts
08-Jul-18 11:42 33.469494 -114.115690 102 23505ft 399kts
08-Jul-18 11:43 33.443800 -113.987302 102 23003ft 395kts
08-Jul-18 11:44 33.418216 -113.859954 102 23001ft 394kts
08-Jul-18 11:45 33.392739 -113.733555 102 22518ft 392kts
08-Jul-18 11:46 33.366583 -113.606081 102 21590ft 393kts
08-Jul-18 11:47 33.340767 -113.480141 102 20628ft 388kts
08-Jul-18 11:48 33.319459 -113.357442 100 18923ft 374kts
08-Jul-18 11:49 33.299874 -113.244467 101 17163ft 364kts
08-Jul-18 11:50 33.282670 -113.127514 99 15440ft 350kts
08-Jul-18 11:51 33.275703 -113.017714 87 14260ft 327kts
08-Jul-18 11:52 33.278327 -112.912810 87 12656ft 322kts
08-Jul-18 11:53 33.284831 -112.810108 66 11512ft 300kts
08-Jul-18 11:54 33.318126 -112.721331 66 10428ft 281kts
08-Jul-18 11:55 33.348883 -112.640130 66 9540ft 263kts
08-Jul-18 11:56 33.378424 -112.562730 66 8447ft 255kts
08-Jul-18 11:57 33.407238 -112.486553 68 7842ft 250kts
08-Jul-18 11:58 33.428669 -112.409376 90 6827ft 245kts
08-Jul-18 11:59 33.428689 -112.330465 90 5719ft 245kts
08-Jul-18 12:00 33.428808 -112.250962 90 4590ft 246kts
08-Jul-18 12:01 33.429064 -112.170818 91 3472ft 242kts
08-Jul-18 12:02 33.428931 -112.091317 90 2197ft 225kts
08-Jul-18 12:03 33.428842 -112.029846 89 1196ft 153kts
08-Jul-18 12:04 33.429299 -112.007977 47 1118ft 8kts
08-Jul-18 12:05 33.429801 -112.007567 36 1118ft 0kts
08-Jul-18 12:06 33.431528 -112.008971 357 1118ft 14kts
08-Jul-18 12:07 33.432665 -112.010007 350 1118ft 9kts
08-Jul-18 12:08 33.434204 -112.009843 83 1118ft 2kts
08-Jul-18 12:09 33.434213 -112.009314 90 1118ft 0kts
08-Jul-18 12:10 33.434213 -112.009314 90 1118ft 0kts
08-Jul-18 12:11 33.428867 -112.015414 90 1118ft 97kts

Navigation Log

Ident Type
Flight plan parsing failed, navigation log unavailable